createdAt,value
2023-07-20T00:01:02.522Z,6.28
2023-07-20T00:03:20.600Z,4.53
2023-07-20T00:05:26.304Z,5.75
2023-07-20T00:07:29.986Z,6.97
2023-07-20T00:09:33.910Z,5.28
2023-07-20T00:11:39.960Z,5.30
2023-07-20T00:13:43.640Z,3.33
2023-07-20T00:15:47.354Z,3.58
2023-07-20T00:17:51.400Z,5.57
2023-07-20T00:19:56.452Z,3.83
2023-07-20T00:22:00.571Z,4.05
2023-07-20T00:24:04.318Z,3.45
2023-07-20T00:26:07.980Z,3.70
2023-07-20T00:28:11.799Z,4.70
2023-07-20T00:30:16.014Z,2.97
2023-07-20T00:32:20.796Z,3.42
2023-07-20T00:34:24.470Z,3.35
2023-07-20T00:36:29.491Z,4.05
2023-07-20T00:40:39.358Z,3.78
2023-07-20T00:42:43.103Z,6.85
2023-07-20T00:44:46.787Z,4.25
2023-07-20T00:46:50.574Z,5.47
2023-07-20T00:48:55.293Z,4.05
2023-07-20T00:51:00.771Z,3.88
2023-07-20T00:53:07.569Z,3.65
2023-07-20T00:55:11.714Z,3.55
2023-07-20T00:57:17.534Z,4.63
2023-07-20T00:59:21.239Z,6.20
2023-07-20T01:01:24.184Z,3.70
2023-07-20T01:03:28.129Z,3.65
2023-07-20T01:05:43.380Z,3.70
2023-07-20T01:07:55.910Z,3.28
2023-07-20T01:10:08.512Z,4.82
2023-07-20T01:12:22.861Z,4.10
2023-07-20T01:14:26.930Z,4.18
2023-07-20T01:16:30.269Z,4.68
2023-07-20T01:18:33.973Z,4.05
2023-07-20T01:20:38.835Z,4.22
2023-07-20T01:23:10.393Z,3.40
2023-07-20T01:25:38.356Z,5.80
2023-07-20T01:28:18.203Z,5.93
2023-07-20T01:30:46.941Z,4.10
2023-07-20T01:32:54.568Z,4.60
2023-07-20T01:35:01.328Z,3.95
2023-07-20T01:37:06.062Z,3.33
2023-07-20T01:45:21.114Z,10.75
2023-07-20T01:47:24.838Z,4.72
2023-07-20T01:49:30.082Z,4.15
2023-07-20T01:51:33.716Z,3.92
2023-07-20T01:53:36.314Z,3.83
2023-07-20T01:55:39.903Z,5.15
2023-07-20T01:57:43.409Z,5.10
2023-07-20T01:59:47.203Z,5.00
2023-07-20T02:01:50.792Z,5.60
2023-07-20T02:03:55.300Z,4.03
2023-07-20T02:06:00.347Z,4.38
2023-07-20T02:08:03.531Z,3.78
2023-07-20T02:10:08.285Z,4.38
2023-07-20T02:12:12.750Z,2.97
2023-07-20T02:14:16.444Z,3.25
2023-07-20T02:16:20.226Z,4.07
2023-07-20T02:18:24.719Z,5.22
2023-07-20T02:20:28.866Z,4.30
2023-07-20T02:22:34.034Z,5.32
2023-07-20T02:24:36.641Z,4.18
2023-07-20T02:26:40.515Z,4.22
2023-07-20T02:28:44.149Z,6.05
2023-07-20T02:30:51.558Z,4.25
2023-07-20T02:32:59.931Z,3.30
2023-07-20T02:35:06.326Z,7.30
2023-07-20T02:37:12.440Z,5.03
2023-07-20T02:39:16.553Z,4.05
2023-07-20T02:41:20.645Z,2.90
2023-07-20T02:43:24.391Z,3.78
2023-07-20T02:45:28.705Z,4.47
2023-07-20T02:47:32.655Z,3.63
2023-07-20T02:49:36.918Z,3.53
2023-07-20T02:51:40.708Z,3.85
2023-07-20T02:53:44.306Z,5.55
2023-07-20T02:55:49.710Z,4.35
2023-07-20T02:57:53.266Z,4.05
2023-07-20T02:59:57.359Z,3.28
2023-07-20T03:02:01.762Z,5.20
2023-07-20T03:04:06.688Z,8.23
2023-07-20T03:06:11.919Z,3.92
2023-07-20T03:08:15.789Z,4.97
2023-07-20T03:10:18.897Z,4.70
2023-07-20T03:12:24.142Z,3.63
2023-07-20T03:14:28.622Z,4.35
2023-07-20T03:18:38.753Z,5.22
2023-07-20T03:20:42.422Z,5.15
2023-07-20T03:22:46.705Z,5.13
2023-07-20T03:24:50.559Z,3.30
2023-07-20T03:26:55.912Z,3.40
2023-07-20T03:29:01.162Z,5.60
2023-07-20T03:31:05.360Z,6.13
2023-07-20T03:33:11.994Z,4.63
2023-07-20T03:35:17.106Z,4.55
2023-07-20T03:37:20.815Z,4.03
2023-07-20T03:39:25.679Z,3.53
2023-07-20T03:41:29.898Z,4.35
2023-07-20T03:43:35.959Z,3.88
2023-07-20T03:45:39.934Z,4.00
2023-07-20T03:47:43.541Z,3.20
2023-07-20T03:49:48.689Z,3.25
2023-07-20T03:51:53.442Z,4.78
2023-07-20T03:53:57.643Z,4.13
2023-07-20T03:56:01.296Z,3.72
2023-07-20T03:58:04.974Z,5.35
2023-07-20T04:00:10.670Z,3.72
2023-07-20T04:02:18.562Z,3.05
2023-07-20T04:04:22.680Z,5.05
2023-07-20T04:06:26.651Z,3.78
2023-07-20T04:08:30.582Z,3.13
2023-07-20T04:10:34.426Z,4.03
2023-07-20T04:12:38.228Z,4.85
2023-07-20T04:14:41.822Z,3.30
2023-07-20T04:16:45.339Z,5.60
2023-07-20T04:18:49.270Z,5.68
2023-07-20T04:20:52.843Z,2.83
2023-07-20T04:22:56.612Z,4.35
2023-07-20T04:25:00.247Z,4.93
2023-07-20T04:27:04.426Z,3.42
2023-07-20T04:29:09.946Z,3.90
2023-07-20T04:31:18.441Z,3.88
2023-07-20T04:35:51.328Z,6.10
2023-07-20T04:37:58.909Z,3.50
2023-07-20T04:40:04.912Z,4.65
2023-07-20T04:42:08.742Z,4.55
2023-07-20T04:44:12.712Z,3.45
2023-07-20T04:46:16.383Z,4.43
2023-07-20T04:48:21.091Z,5.15
2023-07-20T04:50:27.154Z,5.70
2023-07-20T04:52:42.983Z,3.83
2023-07-20T04:54:50.470Z,5.18
2023-07-20T04:56:54.271Z,5.88
2023-07-20T04:59:00.579Z,4.53
2023-07-20T05:01:06.226Z,4.90
2023-07-20T05:03:12.173Z,5.93
2023-07-20T05:05:16.960Z,6.13
2023-07-20T05:07:20.634Z,6.35
2023-07-20T05:09:26.120Z,6.97
2023-07-20T05:11:29.892Z,6.22
2023-07-20T05:13:34.275Z,5.25
2023-07-20T05:15:37.762Z,6.75
2023-07-20T05:19:47.341Z,5.28
2023-07-20T05:21:51.000Z,4.93
2023-07-20T05:23:54.788Z,5.72
2023-07-20T05:26:00.909Z,5.50
2023-07-20T05:28:04.647Z,5.68
2023-07-20T05:30:09.575Z,6.75
2023-07-20T05:32:13.452Z,5.72
2023-07-20T05:34:18.276Z,8.10
2023-07-20T05:40:28.833Z,6.18
2023-07-20T05:42:33.683Z,4.07
2023-07-20T05:44:39.858Z,5.43
2023-07-20T05:46:56.435Z,5.13
2023-07-20T05:49:01.443Z,5.35
2023-07-20T05:51:05.292Z,5.45
2023-07-20T05:53:09.483Z,5.30
2023-07-20T05:55:14.497Z,5.78
2023-07-20T05:57:18.427Z,4.78
2023-07-20T05:59:25.725Z,8.77
2023-07-20T06:01:29.745Z,6.60
2023-07-20T06:03:32.287Z,5.97
2023-07-20T06:05:35.854Z,6.22
2023-07-20T06:07:39.757Z,8.70
2023-07-20T06:09:43.126Z,7.13
2023-07-20T06:11:47.338Z,5.85
2023-07-20T06:13:52.309Z,6.22
2023-07-20T06:15:59.063Z,7.05
2023-07-20T06:18:02.762Z,4.47
2023-07-20T06:20:08.486Z,7.40
2023-07-20T06:22:12.191Z,6.78
2023-07-20T06:24:15.997Z,6.57
2023-07-20T06:26:21.514Z,6.88
2023-07-20T06:28:26.019Z,6.30
2023-07-20T06:30:30.157Z,4.43
2023-07-20T06:32:35.878Z,7.28
2023-07-20T06:34:39.966Z,6.57
2023-07-20T06:36:43.983Z,6.97
2023-07-20T06:40:56.545Z,7.78
2023-07-20T06:45:07.624Z,8.80
2023-07-20T06:47:14.228Z,10.13
2023-07-20T06:49:29.561Z,13.07
2023-07-20T06:51:32.455Z,10.80
2023-07-20T06:53:36.592Z,9.65
2023-07-20T06:55:42.090Z,9.77
2023-07-20T06:57:49.152Z,12.10
2023-07-20T06:59:53.463Z,9.75
2023-07-20T07:01:57.332Z,10.80
2023-07-20T07:04:01.368Z,11.32
2023-07-20T07:06:06.879Z,12.50
2023-07-20T07:08:10.505Z,13.02
2023-07-20T07:10:14.125Z,11.35
2023-07-20T07:12:17.998Z,9.20
2023-07-20T07:14:30.615Z,10.40
2023-07-20T07:18:42.708Z,10.00
2023-07-20T07:20:52.114Z,10.30
2023-07-20T07:22:58.404Z,10.07
2023-07-20T07:25:02.036Z,8.88
2023-07-20T07:27:06.369Z,10.25
2023-07-20T07:29:10.080Z,10.77
2023-07-20T07:31:14.171Z,11.02
2023-07-20T07:33:17.983Z,10.38
2023-07-20T07:35:21.838Z,8.93
2023-07-20T07:37:25.468Z,12.38
2023-07-20T07:41:36.865Z,11.32
2023-07-20T07:43:41.251Z,10.45
2023-07-20T07:45:44.868Z,11.45
2023-07-20T07:47:47.568Z,11.30
2023-07-20T07:49:51.756Z,8.25
2023-07-20T07:51:55.512Z,9.60
2023-07-20T07:53:59.216Z,9.48
2023-07-20T07:56:04.416Z,9.25
2023-07-20T07:58:08.071Z,9.32
2023-07-20T08:00:15.709Z,9.20
2023-07-20T08:02:19.363Z,10.88
2023-07-20T08:04:22.954Z,10.18
2023-07-20T08:06:27.183Z,9.18
2023-07-20T08:08:32.066Z,12.23
2023-07-20T08:10:35.784Z,10.50
2023-07-20T08:12:40.845Z,10.95
2023-07-20T08:14:44.476Z,11.40
2023-07-20T08:16:48.943Z,8.57
2023-07-20T08:20:57.007Z,9.13
2023-07-20T08:23:00.951Z,12.50
2023-07-20T08:25:04.636Z,9.45
2023-07-20T08:27:08.557Z,10.50
2023-07-20T08:29:12.763Z,10.82
2023-07-20T08:31:16.660Z,10.02
2023-07-20T08:33:21.568Z,10.27
2023-07-20T08:35:24.167Z,9.98
2023-07-20T08:37:27.921Z,9.98
2023-07-20T08:39:31.845Z,8.18
2023-07-20T08:41:36.898Z,9.02
2023-07-20T08:43:45.036Z,8.80
2023-07-20T08:45:52.642Z,8.88
2023-07-20T08:47:58.402Z,9.40
2023-07-20T08:50:03.775Z,9.10
2023-07-20T08:52:07.586Z,10.50
2023-07-20T08:54:15.192Z,9.05
2023-07-20T08:56:19.446Z,9.27
2023-07-20T08:58:23.561Z,9.88
2023-07-20T09:00:27.409Z,8.77
2023-07-20T09:02:36.819Z,8.77
2023-07-20T09:04:41.386Z,6.85
2023-07-20T09:06:45.799Z,7.57
2023-07-20T09:08:49.929Z,7.18
2023-07-20T09:10:53.538Z,8.18
2023-07-20T09:12:57.712Z,7.97
2023-07-20T09:15:01.466Z,6.65
2023-07-20T09:17:05.469Z,8.07
2023-07-20T09:19:10.749Z,8.45
2023-07-20T09:21:14.392Z,9.52
2023-07-20T09:23:19.511Z,7.68
2023-07-20T09:25:25.370Z,7.57
2023-07-20T09:27:38.797Z,9.55
2023-07-20T09:29:51.711Z,7.68
2023-07-20T09:32:05.323Z,6.95
2023-07-20T09:34:10.597Z,6.95
2023-07-20T09:36:56.900Z,6.70
2023-07-20T09:45:01.934Z,7.53
2023-07-20T09:47:05.879Z,7.65
2023-07-20T09:51:22.220Z,6.57
2023-07-20T09:53:28.165Z,8.10
2023-07-20T09:55:32.910Z,8.82
2023-07-20T09:57:37.054Z,8.07
2023-07-20T09:59:40.867Z,10.43
2023-07-20T10:01:46.557Z,8.93
2023-07-20T10:03:51.860Z,10.88
2023-07-20T10:05:59.922Z,7.85
2023-07-20T10:10:13.855Z,8.27
2023-07-20T10:12:18.540Z,8.77
2023-07-20T10:14:23.431Z,7.30
2023-07-20T10:18:37.890Z,8.93
2023-07-20T10:21:43.777Z,7.40
2023-07-20T10:23:09.289Z,7.03
2023-07-20T10:25:12.199Z,8.13
2023-07-20T10:27:16.306Z,7.55
2023-07-20T10:29:20.706Z,8.05
2023-07-20T10:31:25.369Z,8.85
2023-07-20T10:33:29.429Z,8.40
2023-07-20T10:35:33.377Z,7.47
2023-07-20T10:37:50.242Z,6.32
2023-07-20T10:39:58.404Z,7.50
2023-07-20T10:42:06.499Z,8.43
2023-07-20T10:44:11.719Z,7.85
2023-07-20T10:46:15.838Z,7.05
2023-07-20T10:48:21.184Z,8.77
2023-07-20T10:50:24.241Z,8.82
2023-07-20T10:52:30.252Z,10.63
2023-07-20T10:54:52.516Z,9.18
2023-07-20T10:56:58.957Z,7.22
2023-07-20T10:59:03.705Z,8.88
2023-07-20T11:01:07.777Z,10.10
2023-07-20T11:03:11.542Z,9.90
2023-07-20T11:05:37.660Z,8.13
2023-07-20T11:07:42.686Z,10.43
2023-07-20T11:12:11.364Z,9.88
2023-07-20T11:14:26.512Z,12.38
2023-07-20T11:16:44.814Z,11.32
2023-07-20T11:18:49.647Z,12.07
2023-07-20T11:22:57.785Z,8.70
2023-07-20T11:25:01.519Z,9.55
2023-07-20T11:27:05.557Z,8.95
2023-07-20T11:29:20.965Z,9.55
2023-07-20T11:31:30.668Z,9.68
2023-07-20T11:33:34.698Z,9.95
2023-07-20T11:35:44.413Z,9.88
2023-07-20T11:37:48.223Z,9.88
2023-07-20T11:39:52.098Z,7.80
2023-07-20T11:41:58.157Z,8.82
2023-07-20T11:44:00.748Z,9.70
2023-07-20T11:46:05.482Z,9.85
2023-07-20T11:50:20.212Z,8.65
2023-07-20T11:52:26.487Z,7.93
2023-07-20T11:54:30.583Z,9.27
2023-07-20T11:56:33.265Z,7.60
2023-07-20T11:58:37.015Z,10.00
2023-07-20T12:00:41.663Z,8.98
2023-07-20T12:02:45.401Z,8.30
2023-07-20T12:04:50.984Z,8.45
2023-07-20T12:06:56.671Z,7.75
2023-07-20T12:09:01.518Z,5.82
2023-07-20T12:11:04.165Z,8.30
2023-07-20T12:13:08.446Z,7.10
2023-07-20T12:15:17.604Z,8.27
2023-07-20T12:17:21.878Z,8.50
2023-07-20T12:19:28.482Z,6.50
2023-07-20T12:21:34.346Z,7.68
2023-07-20T12:23:38.496Z,9.27
2023-07-20T12:25:43.046Z,8.90
2023-07-20T12:27:48.376Z,8.48
2023-07-20T12:29:52.333Z,8.30
2023-07-20T12:31:56.180Z,8.55
2023-07-20T12:34:00.639Z,8.52
2023-07-20T12:36:04.691Z,9.38
2023-07-20T12:38:10.027Z,10.32
2023-07-20T12:40:13.333Z,7.05
2023-07-20T12:42:18.217Z,8.93
2023-07-20T12:44:22.116Z,9.60
2023-07-20T12:46:26.879Z,8.43
2023-07-20T12:48:31.000Z,8.55
2023-07-20T12:50:34.600Z,9.02
2023-07-20T12:52:39.675Z,8.68
2023-07-20T12:54:44.927Z,8.35
2023-07-20T12:58:55.045Z,9.50
2023-07-20T13:01:01.445Z,8.15
2023-07-20T13:03:10.027Z,7.28
2023-07-20T13:05:14.116Z,8.02
2023-07-20T13:09:25.838Z,7.40
2023-07-20T13:11:32.466Z,6.78
2023-07-20T13:13:36.872Z,7.35
2023-07-20T13:15:45.323Z,7.05
2023-07-20T13:17:49.282Z,6.13
2023-07-20T13:19:53.615Z,8.18
2023-07-20T13:21:58.384Z,8.48
2023-07-20T13:26:05.762Z,9.80
2023-07-20T13:28:10.824Z,7.72
2023-07-20T13:30:17.979Z,9.43
2023-07-20T13:32:22.497Z,8.88
2023-07-20T13:34:29.754Z,8.63
2023-07-20T13:36:34.008Z,9.48
2023-07-20T13:38:40.358Z,10.23
2023-07-20T13:40:44.688Z,9.68
2023-07-20T13:42:48.534Z,10.75
2023-07-20T13:44:52.963Z,10.18
2023-07-20T13:47:21.797Z,11.80
2023-07-20T13:49:23.554Z,9.45
2023-07-20T13:51:28.481Z,10.48
2023-07-20T13:57:46.475Z,10.43
2023-07-20T13:59:52.285Z,12.18
2023-07-20T14:04:05.559Z,12.20
2023-07-20T14:08:16.458Z,12.88
2023-07-20T14:10:21.458Z,10.77
2023-07-20T14:12:25.259Z,15.63
2023-07-20T14:14:28.925Z,14.10
2023-07-20T14:16:33.834Z,15.88
2023-07-20T14:18:39.202Z,12.77
2023-07-20T14:20:42.901Z,14.02
2023-07-20T14:22:47.064Z,14.50
2023-07-20T14:24:51.014Z,13.75
2023-07-20T14:26:53.961Z,14.43
2023-07-20T14:28:59.160Z,13.57
2023-07-20T14:31:03.203Z,12.48
2023-07-20T14:33:07.144Z,14.02
2023-07-20T14:35:12.643Z,15.02
2023-07-20T14:37:16.558Z,15.65
2023-07-20T14:39:20.976Z,15.07
2023-07-20T14:43:27.939Z,13.82
2023-07-20T14:45:31.985Z,11.60
2023-07-20T14:47:36.784Z,16.23
2023-07-20T14:49:41.945Z,15.57
2023-07-20T14:51:48.266Z,12.57
2023-07-20T14:53:51.981Z,11.75
2023-07-20T14:55:55.905Z,12.25
2023-07-20T14:57:59.555Z,12.18
2023-07-20T15:00:04.052Z,10.20
2023-07-20T15:02:08.505Z,11.07
2023-07-20T15:04:12.539Z,10.98
2023-07-20T15:06:16.072Z,13.00
2023-07-20T15:08:21.475Z,11.30
2023-07-20T15:10:25.045Z,11.77
2023-07-20T15:12:28.676Z,11.60
2023-07-20T15:14:32.249Z,10.73
2023-07-20T15:16:36.757Z,12.13
2023-07-20T15:18:47.940Z,10.90
2023-07-20T15:20:55.309Z,14.98
2023-07-20T15:22:59.220Z,12.93
2023-07-20T15:25:05.516Z,9.98
2023-07-20T15:27:09.451Z,10.32
2023-07-20T15:31:20.201Z,11.82
2023-07-20T15:33:25.581Z,7.95
2023-07-20T15:35:30.798Z,9.32
2023-07-20T15:37:34.545Z,11.00
2023-07-20T15:39:38.191Z,7.30
2023-07-20T15:41:43.417Z,8.20
2023-07-20T15:43:48.485Z,10.35
2023-07-20T15:45:52.352Z,8.93
2023-07-20T15:47:56.533Z,10.77
2023-07-20T15:50:01.055Z,8.40
2023-07-20T15:52:08.070Z,7.82
2023-07-20T15:54:12.895Z,9.52
2023-07-20T15:56:16.501Z,7.68
2023-07-20T15:58:21.656Z,9.05
2023-07-20T16:00:26.260Z,7.90
2023-07-20T16:02:30.198Z,8.52
2023-07-20T16:04:33.994Z,9.20
2023-07-20T16:06:38.283Z,6.63
2023-07-20T16:08:41.977Z,8.23
2023-07-20T16:10:45.609Z,9.23
2023-07-20T16:12:49.140Z,8.13
2023-07-20T16:17:01.025Z,7.70
2023-07-20T16:19:05.121Z,7.50
2023-07-20T16:21:08.597Z,7.38
2023-07-20T16:23:12.257Z,10.40
2023-07-20T16:25:16.234Z,7.15
2023-07-20T16:27:19.803Z,6.90
2023-07-20T16:29:25.445Z,7.07
2023-07-20T16:31:30.803Z,6.22
2023-07-20T16:33:34.673Z,8.10
2023-07-20T16:44:45.834Z,3.75
2023-07-20T16:48:56.361Z,4.60
2023-07-20T16:50:59.754Z,4.00
2023-07-20T16:53:03.606Z,4.65
2023-07-20T16:55:07.971Z,4.20
2023-07-20T16:57:11.806Z,5.60
2023-07-20T16:59:15.438Z,4.32
2023-07-20T17:01:19.024Z,3.50
2023-07-20T17:03:24.347Z,3.60
2023-07-20T17:05:28.044Z,3.92
2023-07-20T17:07:31.686Z,7.70
2023-07-20T17:09:36.884Z,3.72
2023-07-20T17:11:40.438Z,5.78
2023-07-20T17:13:44.143Z,3.15
2023-07-20T17:15:51.101Z,3.78
2023-07-20T17:17:54.922Z,3.65
2023-07-20T17:22:06.969Z,2.75
2023-07-20T17:24:11.806Z,1.15
2023-07-20T17:30:29.584Z,1.98
2023-07-20T17:32:34.441Z,1.33
2023-07-20T17:34:41.413Z,1.35
2023-07-20T17:38:53.122Z,1.42
2023-07-20T17:40:56.702Z,1.02
2023-07-20T17:45:07.024Z,2.55
2023-07-20T17:49:16.944Z,0.95
2023-07-20T17:51:20.580Z,1.90
2023-07-20T17:53:27.050Z,4.03
2023-07-20T17:55:30.835Z,2.40
2023-07-20T17:57:33.701Z,2.33
2023-07-20T18:00:38.219Z,1.50
2023-07-20T18:02:04.380Z,1.20
2023-07-20T18:04:09.429Z,2.78
2023-07-20T18:06:13.218Z,4.22
2023-07-20T18:08:17.050Z,2.28
2023-07-20T18:10:22.271Z,3.22
2023-07-20T18:12:26.755Z,2.40
2023-07-20T18:14:30.304Z,1.55
2023-07-20T18:16:34.201Z,2.10
2023-07-20T18:18:37.899Z,2.92
2023-07-20T18:20:41.595Z,1.90
2023-07-20T18:22:45.227Z,0.98
2023-07-20T18:24:49.421Z,0.80
2023-07-20T18:26:55.290Z,2.47
2023-07-20T18:28:58.902Z,0.82
2023-07-20T18:31:06.687Z,0.88
2023-07-20T18:33:10.289Z,1.65
2023-07-20T18:35:14.269Z,1.15
2023-07-20T18:37:20.966Z,1.10
2023-07-20T18:39:24.650Z,1.10
2023-07-20T18:41:28.429Z,1.42
2023-07-20T18:43:33.479Z,1.05
2023-07-20T18:45:37.372Z,1.42
2023-07-20T18:47:41.612Z,3.15
2023-07-20T18:49:45.512Z,1.00
2023-07-20T18:51:50.002Z,3.47
2023-07-20T18:53:54.352Z,1.92
2023-07-20T18:55:58.425Z,1.15
2023-07-20T18:58:02.434Z,1.33
2023-07-20T19:00:09.052Z,1.65
2023-07-20T19:02:12.808Z,2.17
2023-07-20T19:04:16.345Z,1.38
2023-07-20T19:06:19.903Z,1.27
2023-07-20T19:08:23.459Z,1.20
2023-07-20T19:10:28.738Z,1.17
2023-07-20T19:12:32.360Z,1.10
2023-07-20T19:14:35.839Z,2.20
2023-07-20T19:16:40.924Z,0.85
2023-07-20T19:18:44.587Z,1.05
2023-07-20T19:20:47.196Z,1.73
2023-07-20T19:22:50.776Z,1.65
2023-07-20T19:24:54.612Z,1.42
2023-07-20T19:26:58.482Z,2.92
2023-07-20T19:29:02.110Z,1.00
2023-07-20T19:31:06.430Z,1.33
2023-07-20T19:33:11.453Z,0.98
2023-07-20T19:35:15.413Z,2.65
2023-07-20T19:37:19.047Z,3.08
2023-07-20T19:39:22.593Z,1.98
2023-07-20T19:41:26.155Z,2.10
2023-07-20T19:43:30.276Z,1.30
2023-07-20T19:45:33.880Z,1.02
2023-07-20T19:47:37.469Z,0.77
2023-07-20T19:49:42.655Z,2.22
2023-07-20T19:51:46.325Z,0.82
2023-07-20T19:56:01.797Z,1.83
2023-07-20T19:58:05.461Z,2.40
2023-07-20T20:00:12.971Z,1.35
2023-07-20T20:02:16.740Z,2.47
2023-07-20T20:06:29.139Z,1.83
2023-07-20T20:08:33.425Z,2.10
2023-07-20T20:12:45.103Z,2.33
2023-07-20T20:14:48.710Z,2.45
2023-07-20T20:16:53.505Z,1.02
2023-07-20T20:25:21.270Z,1.17
2023-07-20T20:27:23.855Z,2.10
2023-07-20T20:29:29.181Z,1.65
2023-07-20T20:31:33.070Z,2.33
2023-07-20T20:33:38.632Z,3.22
2023-07-20T20:35:43.685Z,2.45
2023-07-20T20:37:47.286Z,2.03
2023-07-20T20:39:52.448Z,1.40
2023-07-20T20:41:55.955Z,2.38
2023-07-20T20:43:59.771Z,2.13
2023-07-20T20:46:06.234Z,3.95
2023-07-20T20:48:10.288Z,3.60
2023-07-20T20:50:14.449Z,1.55
2023-07-20T20:52:19.078Z,2.78
2023-07-20T20:54:22.628Z,2.35
2023-07-20T20:56:31.070Z,3.67
2023-07-20T20:58:35.607Z,4.85
2023-07-20T21:00:39.413Z,3.85
2023-07-20T21:02:43.910Z,7.68
2023-07-20T21:04:50.934Z,3.20
2023-07-20T21:06:54.632Z,9.85
2023-07-20T21:08:58.125Z,4.75
2023-07-20T21:11:01.780Z,1.48
2023-07-20T21:13:06.878Z,2.35
2023-07-20T21:15:11.450Z,3.08
2023-07-20T21:17:15.004Z,2.05
2023-07-20T21:19:18.600Z,2.58
2023-07-20T21:21:22.240Z,1.63
2023-07-20T21:23:25.961Z,2.50
2023-07-20T21:25:29.662Z,4.18
2023-07-20T21:27:33.725Z,2.47
2023-07-20T21:29:38.904Z,3.00
2023-07-20T21:31:42.478Z,2.08
2023-07-20T21:33:46.674Z,6.13
2023-07-20T21:35:50.255Z,3.50
2023-07-20T21:37:54.702Z,2.22
2023-07-20T21:39:58.416Z,2.47
2023-07-20T21:42:01.918Z,3.63
2023-07-20T21:44:05.691Z,2.88
2023-07-20T21:46:10.658Z,2.47
2023-07-20T21:48:14.403Z,3.50
2023-07-20T21:50:20.120Z,3.22
2023-07-20T21:52:23.833Z,2.72
2023-07-20T21:54:27.752Z,3.33
2023-07-20T21:56:31.258Z,3.72
2023-07-20T21:58:34.899Z,2.28
2023-07-20T22:00:38.510Z,2.05
2023-07-20T22:02:43.627Z,3.38
2023-07-20T22:04:46.732Z,3.17
2023-07-20T22:06:50.757Z,2.55
2023-07-20T22:08:54.325Z,3.60
2023-07-20T22:10:57.823Z,2.67
2023-07-20T22:13:01.602Z,5.05
2023-07-20T22:15:06.072Z,4.32
2023-07-20T22:17:10.545Z,2.20
2023-07-20T22:19:20.325Z,4.53
2023-07-20T22:21:24.199Z,1.67
2023-07-20T22:23:28.319Z,2.47
2023-07-20T22:25:31.955Z,5.70
2023-07-20T22:27:35.508Z,2.70
2023-07-20T22:29:40.486Z,3.20
2023-07-20T22:31:44.084Z,3.65
2023-07-20T22:33:48.888Z,5.57
2023-07-20T22:35:53.943Z,3.10
2023-07-20T22:37:56.580Z,2.58
2023-07-20T22:40:00.084Z,4.85
2023-07-20T22:42:04.862Z,3.95
2023-07-20T22:44:08.507Z,2.58
2023-07-20T22:46:12.174Z,3.78
2023-07-20T22:48:16.750Z,2.80
2023-07-20T22:50:19.273Z,2.78
2023-07-20T22:52:24.377Z,4.13
2023-07-20T22:54:28.256Z,3.50
2023-07-20T22:56:32.602Z,5.95
2023-07-20T22:58:36.220Z,3.28
2023-07-20T23:00:40.600Z,3.35
2023-07-20T23:02:45.243Z,2.75
2023-07-20T23:04:49.146Z,4.38
2023-07-20T23:06:53.173Z,4.32
2023-07-20T23:08:59.950Z,2.80
2023-07-20T23:11:05.130Z,4.78
2023-07-20T23:13:08.715Z,2.72
2023-07-20T23:15:13.627Z,3.08
2023-07-20T23:19:21.493Z,3.25
2023-07-20T23:21:25.068Z,4.47
2023-07-20T23:23:28.757Z,3.85
2023-07-20T23:25:33.805Z,2.67
2023-07-20T23:27:36.397Z,2.20
2023-07-20T23:29:40.749Z,4.43
2023-07-20T23:31:44.552Z,4.43
2023-07-20T23:33:48.033Z,3.42
2023-07-20T23:35:51.996Z,2.78
2023-07-20T23:37:56.576Z,4.28
2023-07-20T23:40:00.276Z,2.90
2023-07-20T23:42:08.626Z,2.63
2023-07-20T23:44:12.169Z,2.95
2023-07-20T23:46:24.372Z,5.13
2023-07-20T23:48:31.320Z,3.20
2023-07-20T23:50:34.929Z,2.80
2023-07-20T23:52:39.160Z,5.03
2023-07-20T23:54:43.004Z,4.60
2023-07-20T23:56:47.657Z,6.15
2023-07-20T23:58:52.716Z,3.80
